Time;durP1;ratioP1;P1;durP2;ratioP2;P2;SDS_P1;SDS_P2;PMS_P1;PMS_P2;Temp;Humidity;BMP_temperature;BMP_pressure;BME280_temperature;BME280_humidity;BME280_pressure;Samples;Min_cycle;Max_cycle;Signal;HPM_P1;HPM_P2
2022/02/20 00:00:55;;;;;;;6.18;3.15;;;;;;;;;;5066297;28;20027;-57
2022/02/20 00:03:21;;;;;;;7.40;3.17;;;;;;;;;;5065287;28;20766;-57
2022/02/20 00:05:48;;;;;;;5.25;3.00;;;;;;;;;;5064834;28;20427;-57
2022/02/20 00:08:14;;;;;;;6.68;2.95;;;;;;;;;;5066294;28;20090;-57
2022/02/20 00:10:40;;;;;;;6.32;2.95;;;;;;;;;;5066895;28;20189;-57
2022/02/20 00:13:06;;;;;;;7.78;4.80;;;;;;;;;;5064988;28;20401;-57
2022/02/20 00:15:33;;;;;;;10.80;6.45;;;;;;;;;;5067636;28;20232;-57
2022/02/20 00:18:02;;;;;;;12.15;6.07;;;;;;;;;;5075411;28;20023;-56
2022/02/20 00:20:30;;;;;;;9.75;4.68;;;;;;;;;;5066048;28;20035;-57
2022/02/20 00:22:56;;;;;;;10.20;4.88;;;;;;;;;;5066447;28;20399;-57
2022/02/20 00:25:23;;;;;;;9.20;4.60;;;;;;;;;;5065397;28;20569;-56
2022/02/20 00:27:51;;;;;;;9.57;4.18;;;;;;;;;;5064949;28;20063;-56
2022/02/20 00:30:18;;;;;;;7.93;3.85;;;;;;;;;;5064649;28;20063;-55
2022/02/20 00:32:45;;;;;;;8.55;4.00;;;;;;;;;;5066296;28;20099;-57
2022/02/20 00:35:11;;;;;;;6.82;3.22;;;;;;;;;;5065913;28;20142;-57
2022/02/20 00:37:37;;;;;;;5.30;3.22;;;;;;;;;;5066370;28;20475;-56
2022/02/20 00:40:03;;;;;;;6.18;2.80;;;;;;;;;;5064489;28;20111;-56
2022/02/20 00:42:29;;;;;;;5.18;2.50;;;;;;;;;;5066175;28;20546;-57
2022/02/20 00:44:55;;;;;;;3.33;2.10;;;;;;;;;;5063514;28;20584;-56
2022/02/20 00:47:21;;;;;;;6.13;2.50;;;;;;;;;;5064145;28;20032;-55
2022/02/20 00:49:48;;;;;;;5.38;2.22;;;;;;;;;;5065735;28;20025;-56
2022/02/20 00:52:15;;;;;;;5.47;2.35;;;;;;;;;;5062399;28;20017;-56
2022/02/20 00:54:41;;;;;;;5.22;2.20;;;;;;;;;;5061304;28;20056;-56
2022/02/20 00:57:08;;;;;;;5.47;2.40;;;;;;;;;;5065891;28;20032;-56
2022/02/20 00:59:34;;;;;;;4.97;1.98;;;;;;;;;;5067063;28;20028;-56
2022/02/20 01:02:00;;;;;;;5.13;2.25;;;;;;;;;;5076826;28;20038;-56
2022/02/20 01:04:27;;;;;;;5.03;2.35;;;;;;;;;;5064527;28;20029;-57
2022/02/20 01:06:54;;;;;;;4.13;2.10;;;;;;;;;;5065716;28;20388;-56
2022/02/20 01:09:20;;;;;;;5.43;2.05;;;;;;;;;;5066020;28;20036;-56
2022/02/20 01:11:47;;;;;;;5.18;2.40;;;;;;;;;;5065658;28;20025;-56
2022/02/20 01:14:13;;;;;;;3.67;2.22;;;;;;;;;;5065362;28;20028;-56
2022/02/20 01:16:39;;;;;;;6.68;2.85;;;;;;;;;;5064871;28;20107;-57
2022/02/20 01:19:06;;;;;;;5.85;2.60;;;;;;;;;;5057134;28;20033;-56
2022/02/20 01:21:32;;;;;;;5.35;2.30;;;;;;;;;;5065830;28;20044;-56
2022/02/20 01:23:58;;;;;;;5.00;2.53;;;;;;;;;;5065466;28;20062;-56
2022/02/20 01:26:24;;;;;;;6.57;2.80;;;;;;;;;;5065305;28;20029;-56
2022/02/20 01:28:50;;;;;;;6.53;3.10;;;;;;;;;;5064669;28;20055;-56
2022/02/20 01:31:16;;;;;;;6.18;3.25;;;;;;;;;;5064119;28;20028;-56
2022/02/20 01:33:43;;;;;;;5.95;2.85;;;;;;;;;;5065482;28;20021;-56
2022/02/20 01:36:10;;;;;;;4.80;2.58;;;;;;;;;;5065725;28;20283;-56
2022/02/20 01:38:36;;;;;;;4.90;2.33;;;;;;;;;;5064732;28;20013;-56
2022/02/20 01:41:03;;;;;;;4.97;2.28;;;;;;;;;;5048984;28;20112;-57
2022/02/20 01:43:29;;;;;;;3.92;2.00;;;;;;;;;;5043939;28;20463;-56
2022/02/20 01:45:56;;;;;;;6.07;2.50;;;;;;;;;;5045176;28;20025;-57
2022/02/20 01:48:22;;;;;;;7.13;2.47;;;;;;;;;;5045247;28;20028;-57
2022/02/20 01:50:48;;;;;;;6.15;2.50;;;;;;;;;;5056625;28;20035;-58
2022/02/20 01:53:15;;;;;;;5.18;2.25;;;;;;;;;;5054240;28;20029;-58
2022/02/20 01:55:42;;;;;;;4.07;2.13;;;;;;;;;;5051337;28;20420;-57
2022/02/20 01:58:09;;;;;;;5.05;2.80;;;;;;;;;;5051355;28;20021;-57
2022/02/20 02:00:35;;;;;;;4.13;2.50;;;;;;;;;;5051262;28;20129;-57
2022/02/20 02:03:01;;;;;;;5.20;2.63;;;;;;;;;;5050697;28;20037;-57
2022/02/20 02:05:28;;;;;;;5.40;2.70;;;;;;;;;;5051342;28;20032;-57
2022/02/20 02:07:54;;;;;;;5.18;2.25;;;;;;;;;;5050536;28;20111;-57
2022/02/20 02:10:20;;;;;;;5.95;2.60;;;;;;;;;;5050968;28;20065;-57
2022/02/20 02:12:46;;;;;;;6.82;3.17;;;;;;;;;;5050693;28;20420;-57
2022/02/20 02:15:13;;;;;;;5.15;2.17;;;;;;;;;;5050765;28;20060;-57
2022/02/20 02:17:39;;;;;;;6.25;2.42;;;;;;;;;;5050977;28;20034;-57
2022/02/20 02:20:06;;;;;;;7.20;3.00;;;;;;;;;;5050613;28;20029;-57
2022/02/20 02:22:33;;;;;;;5.95;2.55;;;;;;;;;;5054286;28;20028;-57
2022/02/20 02:24:59;;;;;;;5.53;2.50;;;;;;;;;;5070565;28;20598;-57
2022/02/20 02:27:26;;;;;;;4.43;2.55;;;;;;;;;;5070483;28;20028;-57
2022/02/20 02:29:52;;;;;;;4.60;2.47;;;;;;;;;;5061596;28;20025;-57
2022/02/20 02:32:19;;;;;;;5.20;2.58;;;;;;;;;;5050507;28;20035;-57
2022/02/20 02:34:46;;;;;;;4.57;2.63;;;;;;;;;;5050734;28;20465;-57
2022/02/20 02:37:12;;;;;;;7.30;3.17;;;;;;;;;;5050288;28;20032;-57
2022/02/20 02:39:39;;;;;;;5.45;3.15;;;;;;;;;;5050675;28;20029;-57
2022/02/20 02:42:06;;;;;;;6.90;2.42;;;;;;;;;;5050116;28;20687;-57
2022/02/20 02:44:32;;;;;;;7.20;2.80;;;;;;;;;;5050609;28;20025;-57
2022/02/20 02:46:58;;;;;;;6.40;2.25;;;;;;;;;;5049847;28;20108;-57
2022/02/20 02:49:24;;;;;;;4.63;2.13;;;;;;;;;;5055300;28;20601;-57
2022/02/20 02:51:50;;;;;;;6.47;2.75;;;;;;;;;;5070210;28;20480;-57
2022/02/20 02:54:22;;;;;;;5.05;2.10;;;;;;;;;;5070003;28;20029;-57
2022/02/20 02:56:48;;;;;;;4.70;2.60;;;;;;;;;;5070148;28;20039;-57
2022/02/20 02:59:14;;;;;;;5.35;2.30;;;;;;;;;;5068778;28;20103;-57
2022/02/20 03:01:41;;;;;;;6.55;2.63;;;;;;;;;;5069551;28;20032;-57
2022/02/20 03:04:08;;;;;;;5.60;2.80;;;;;;;;;;5062796;28;20053;-57
2022/02/20 03:06:34;;;;;;;5.97;3.17;;;;;;;;;;5049527;28;20114;-57
2022/02/20 03:09:00;;;;;;;6.93;2.80;;;;;;;;;;5050113;28;20476;-57
2022/02/20 03:11:27;;;;;;;5.97;2.63;;;;;;;;;;5068387;28;20579;-57
2022/02/20 03:13:53;;;;;;;4.28;2.35;;;;;;;;;;5069646;28;20060;-57
2022/02/20 03:16:19;;;;;;;5.53;2.67;;;;;;;;;;5069558;28;20028;-57
2022/02/20 03:18:45;;;;;;;5.00;2.33;;;;;;;;;;5068496;28;20435;-57
2022/02/20 03:21:11;;;;;;;5.30;2.55;;;;;;;;;;5068473;28;20037;-57
2022/02/20 03:23:37;;;;;;;5.32;2.42;;;;;;;;;;5069964;28;20029;-57
2022/02/20 03:26:03;;;;;;;4.43;2.50;;;;;;;;;;5050353;28;20496;-57
2022/02/20 03:28:29;;;;;;;3.88;2.20;;;;;;;;;;5049679;28;20017;-57
2022/02/20 03:30:56;;;;;;;4.75;2.45;;;;;;;;;;5065454;28;20116;-57
2022/02/20 03:33:22;;;;;;;5.90;2.60;;;;;;;;;;5069361;28;20074;-57
2022/02/20 03:35:48;;;;;;;5.18;2.42;;;;;;;;;;5069404;28;20551;-57
2022/02/20 03:38:15;;;;;;;4.55;2.65;;;;;;;;;;5060058;28;20028;-57
2022/02/20 03:40:41;;;;;;;5.22;2.45;;;;;;;;;;5063577;28;20032;-57
2022/02/20 03:43:07;;;;;;;5.40;2.20;;;;;;;;;;5069335;28;20074;-57
2022/02/20 03:45:33;;;;;;;4.50;1.98;;;;;;;;;;5069014;28;20499;-57
2022/02/20 03:47:59;;;;;;;4.18;2.00;;;;;;;;;;5068768;28;20578;-57
2022/02/20 03:50:26;;;;;;;4.30;2.10;;;;;;;;;;5066708;28;20127;-57
2022/02/20 03:52:53;;;;;;;4.00;1.90;;;;;;;;;;5069120;28;20023;-57
2022/02/20 03:55:19;;;;;;;4.30;2.20;;;;;;;;;;5069218;28;20487;-57
2022/02/20 03:57:46;;;;;;;5.47;2.00;;;;;;;;;;5068798;28;20387;-57
2022/02/20 04:00:32;;;;;;;3.88;2.03;;;;;;;;;;5067618;28;20050;-57
2022/02/20 04:02:58;;;;;;;3.92;2.10;;;;;;;;;;5068671;28;20025;-57
2022/02/20 04:05:24;;;;;;;5.53;2.15;;;;;;;;;;5069079;28;20020;-57
2022/02/20 04:07:50;;;;;;;4.10;2.20;;;;;;;;;;5068803;28;20419;-57
2022/02/20 04:10:17;;;;;;;4.80;1.90;;;;;;;;;;5056568;28;20621;-57
2022/02/20 04:12:43;;;;;;;3.83;2.17;;;;;;;;;;5048462;28;20450;-57
2022/02/20 04:15:13;;;;;;;3.83;1.98;;;;;;;;;;5047955;28;20033;-57
2022/02/20 04:17:40;;;;;;;4.03;2.15;;;;;;;;;;5048942;28;20029;-57
2022/02/20 04:20:06;;;;;;;4.00;1.63;;;;;;;;;;5057010;28;20084;-57
2022/02/20 04:22:32;;;;;;;3.97;2.15;;;;;;;;;;5068554;28;20055;-57
2022/02/20 04:24:58;;;;;;;5.60;1.83;;;;;;;;;;5068307;28;20388;-57
2022/02/20 04:27:24;;;;;;;3.88;1.45;;;;;;;;;;5067367;28;20020;-57
2022/02/20 04:29:50;;;;;;;4.38;1.70;;;;;;;;;;5067030;28;20472;-57
2022/02/20 04:32:16;;;;;;;3.08;1.65;;;;;;;;;;5068311;28;20025;-57
2022/02/20 04:34:42;;;;;;;2.80;1.65;;;;;;;;;;5068326;28;20043;-58
2022/02/20 04:37:09;;;;;;;2.78;1.35;;;;;;;;;;5068341;28;20044;-57
2022/02/20 04:39:35;;;;;;;3.08;1.70;;;;;;;;;;5066593;28;20032;-57
2022/02/20 04:42:01;;;;;;;4.25;1.73;;;;;;;;;;5068068;28;20024;-58
2022/02/20 04:44:27;;;;;;;3.70;1.70;;;;;;;;;;5068030;28;20388;-57
2022/02/20 04:46:53;;;;;;;3.63;1.77;;;;;;;;;;5067962;28;20029;-57
2022/02/20 04:49:19;;;;;;;2.88;1.63;;;;;;;;;;5066810;28;20523;-57
2022/02/20 04:51:45;;;;;;;3.58;1.75;;;;;;;;;;5068018;28;20062;-57
2022/02/20 04:54:11;;;;;;;3.70;1.50;;;;;;;;;;5068071;28;20462;-57
2022/02/20 04:56:37;;;;;;;4.25;1.85;;;;;;;;;;5068403;28;20551;-57
2022/02/20 04:59:03;;;;;;;2.83;1.35;;;;;;;;;;5067663;28;20136;-57
2022/02/20 05:01:29;;;;;;;6.63;1.95;;;;;;;;;;5067031;28;20044;-57
2022/02/20 05:03:55;;;;;;;2.65;1.40;;;;;;;;;;5067750;28;20077;-57
2022/02/20 05:06:27;;;;;;;4.80;1.88;;;;;;;;;;5068034;28;20416;-57
2022/02/20 05:08:54;;;;;;;4.18;1.42;;;;;;;;;;5066329;28;20032;-57
2022/02/20 05:11:20;;;;;;;4.70;1.90;;;;;;;;;;5050112;28;20134;-57
2022/02/20 05:13:46;;;;;;;2.95;1.60;;;;;;;;;;5047753;28;20110;-57
2022/02/20 05:16:12;;;;;;;3.47;1.63;;;;;;;;;;5047588;28;20063;-57
2022/02/20 05:18:38;;;;;;;2.17;1.38;;;;;;;;;;5048119;28;20021;-57
2022/02/20 05:21:07;;;;;;;4.30;1.60;;;;;;;;;;5059603;28;20032;-57
2022/02/20 05:23:33;;;;;;;3.13;1.40;;;;;;;;;;5067947;28;20017;-57
2022/02/20 05:26:01;;;;;;;3.08;1.50;;;;;;;;;;5069568;28;20696;-57
2022/02/20 05:28:27;;;;;;;5.07;1.50;;;;;;;;;;5059527;28;20106;-57
2022/02/20 05:30:53;;;;;;;2.17;1.33;;;;;;;;;;5051455;28;20518;-57
2022/02/20 05:33:19;;;;;;;3.45;1.40;;;;;;;;;;5051808;28;20167;-57
2022/02/20 05:35:45;;;;;;;2.42;1.13;;;;;;;;;;5051803;28;20555;-57
2022/02/20 05:38:11;;;;;;;3.13;1.30;;;;;;;;;;5051263;28;20392;-57
2022/02/20 05:40:38;;;;;;;2.63;1.20;;;;;;;;;;5051695;28;20380;-57
2022/02/20 05:43:05;;;;;;;3.47;1.27;;;;;;;;;;5051345;28;20451;-57
2022/02/20 05:45:31;;;;;;;1.65;1.25;;;;;;;;;;5051651;28;20029;-57
2022/02/20 05:47:58;;;;;;;2.42;1.20;;;;;;;;;;5052534;28;20039;-57
2022/02/20 05:50:24;;;;;;;1.60;0.85;;;;;;;;;;5071546;28;20795;-57
2022/02/20 05:52:50;;;;;;;2.95;1.10;;;;;;;;;;5071363;28;20082;-57
2022/02/20 05:55:17;;;;;;;2.60;1.10;;;;;;;;;;5070284;28;20016;-57
2022/02/20 05:57:44;;;;;;;3.75;1.33;;;;;;;;;;5070100;28;20100;-57
2022/02/20 06:00:11;;;;;;;2.95;1.08;;;;;;;;;;5071078;28;20593;-57
2022/02/20 06:02:37;;;;;;;1.95;1.05;;;;;;;;;;5071684;28;20487;-57
2022/02/20 06:05:03;;;;;;;2.70;1.25;;;;;;;;;;5070819;28;20116;-57
2022/02/20 06:07:29;;;;;;;2.90;1.10;;;;;;;;;;5071037;28;20031;-57
2022/02/20 06:09:55;;;;;;;2.95;1.50;;;;;;;;;;5069184;28;20438;-57
2022/02/20 06:12:22;;;;;;;3.00;1.60;;;;;;;;;;5069598;28;20040;-57
2022/02/20 06:14:48;;;;;;;2.67;1.65;;;;;;;;;;5070825;28;20466;-57
2022/02/20 06:17:14;;;;;;;3.13;1.70;;;;;;;;;;5070601;28;20404;-57
2022/02/20 06:19:41;;;;;;;3.33;2.03;;;;;;;;;;5069736;28;20036;-57
2022/02/20 06:22:07;;;;;;;3.55;1.60;;;;;;;;;;5070951;28;20360;-57
2022/02/20 06:24:33;;;;;;;4.03;2.05;;;;;;;;;;5070820;28;20682;-57
2022/02/20 06:26:59;;;;;;;3.28;1.63;;;;;;;;;;5070569;28;20036;-57
2022/02/20 06:29:25;;;;;;;3.70;1.75;;;;;;;;;;5069351;28;20024;-57
2022/02/20 06:31:52;;;;;;;4.68;1.92;;;;;;;;;;5069566;28;20028;-57
2022/02/20 06:34:18;;;;;;;4.13;1.92;;;;;;;;;;5070444;28;20532;-57
2022/02/20 06:36:44;;;;;;;6.05;2.33;;;;;;;;;;5067879;28;20515;-57
2022/02/20 06:39:10;;;;;;;4.28;2.70;;;;;;;;;;5070424;28;20505;-57
2022/02/20 06:41:39;;;;;;;4.40;2.42;;;;;;;;;;5070934;28;20032;-57
2022/02/20 06:44:05;;;;;;;3.67;2.03;;;;;;;;;;5070186;28;20031;-57
2022/02/20 06:46:32;;;;;;;4.07;2.00;;;;;;;;;;5069117;28;20032;-57
2022/02/20 06:48:58;;;;;;;3.50;1.80;;;;;;;;;;5063712;28;20076;-57
2022/02/20 06:51:26;;;;;;;2.97;1.85;;;;;;;;;;5053635;28;20736;-57
2022/02/20 06:53:52;;;;;;;3.95;2.20;;;;;;;;;;5067237;28;20596;-57
2022/02/20 06:56:18;;;;;;;5.65;3.05;;;;;;;;;;5066842;28;20029;-57
2022/02/20 06:58:44;;;;;;;4.35;2.80;;;;;;;;;;5068794;28;20431;-57
2022/02/20 07:01:10;;;;;;;5.80;2.95;;;;;;;;;;5069462;28;20024;-57
2022/02/20 07:03:37;;;;;;;5.60;2.60;;;;;;;;;;5068745;28;20503;-57
2022/02/20 07:06:04;;;;;;;5.05;2.45;;;;;;;;;;5068244;28;20077;-57
2022/02/20 07:08:30;;;;;;;6.18;2.65;;;;;;;;;;5055130;28;20028;-57
2022/02/20 07:10:56;;;;;;;5.15;2.95;;;;;;;;;;5063190;28;20051;-57
2022/02/20 07:13:22;;;;;;;3.83;2.40;;;;;;;;;;5069853;28;20209;-57
2022/02/20 07:15:49;;;;;;;5.30;2.58;;;;;;;;;;5069824;28;20184;-57
2022/02/20 07:18:15;;;;;;;5.57;2.47;;;;;;;;;;5059480;28;20024;-57
2022/02/20 07:20:44;;;;;;;8.50;3.67;;;;;;;;;;5066817;28;20415;-57
2022/02/20 07:23:10;;;;;;;7.15;3.80;;;;;;;;;;5069711;28;20020;-57
2022/02/20 07:25:37;;;;;;;7.95;4.03;;;;;;;;;;5064508;28;20620;-57
2022/02/20 07:28:03;;;;;;;10.25;4.00;;;;;;;;;;5049639;28;20056;-57
2022/02/20 07:30:29;;;;;;;7.15;3.70;;;;;;;;;;5059795;28;20028;-57
2022/02/20 07:32:56;;;;;;;7.00;3.50;;;;;;;;;;5049713;28;20067;-57
2022/02/20 07:35:22;;;;;;;8.43;3.45;;;;;;;;;;5050933;28;20381;-57
2022/02/20 07:37:48;;;;;;;4.97;2.85;;;;;;;;;;5049434;28;20021;-57
2022/02/20 07:40:16;;;;;;;5.88;2.80;;;;;;;;;;5056884;28;20087;-57
2022/02/20 07:42:42;;;;;;;5.22;2.90;;;;;;;;;;5061520;28;20413;-57
2022/02/20 07:45:08;;;;;;;5.80;3.38;;;;;;;;;;5063967;28;20040;-57
2022/02/20 07:47:46;;;;;;;6.97;3.40;;;;;;;;;;5049452;28;20028;-57
2022/02/20 07:50:12;;;;;;;5.93;2.95;;;;;;;;;;5048242;28;20037;-57
2022/02/20 07:52:38;;;;;;;6.80;3.35;;;;;;;;;;5049703;28;20369;-57
2022/02/20 07:55:05;;;;;;;7.13;3.10;;;;;;;;;;5049374;28;20025;-57
2022/02/20 07:57:31;;;;;;;5.13;2.80;;;;;;;;;;5049999;28;20025;-57
2022/02/20 07:59:57;;;;;;;5.53;2.97;;;;;;;;;;5067991;28;20450;-57
2022/02/20 08:02:23;;;;;;;5.55;2.83;;;;;;;;;;5068744;28;20476;-57
2022/02/20 08:04:49;;;;;;;4.63;3.00;;;;;;;;;;5055679;28;20508;-56
2022/02/20 08:07:15;;;;;;;5.78;2.78;;;;;;;;;;5063049;28;20091;-57
2022/02/20 08:09:41;;;;;;;5.32;3.08;;;;;;;;;;5066283;28;20469;-57
2022/02/20 08:12:07;;;;;;;7.05;3.13;;;;;;;;;;5059864;28;20021;-57
2022/02/20 08:14:33;;;;;;;3.67;2.22;;;;;;;;;;5065028;28;20697;-57
2022/02/20 08:16:59;;;;;;;5.18;2.70;;;;;;;;;;5056022;28;20641;-56
2022/02/20 08:19:25;;;;;;;3.38;2.25;;;;;;;;;;5068556;28;20482;-57
2022/02/20 08:21:51;;;;;;;4.43;2.60;;;;;;;;;;5060467;28;20020;-57
2022/02/20 08:24:17;;;;;;;4.65;2.42;;;;;;;;;;5069349;28;20063;-57
2022/02/20 08:26:45;;;;;;;4.43;2.33;;;;;;;;;;5055318;28;20532;-57
2022/02/20 08:29:11;;;;;;;4.82;2.65;;;;;;;;;;5049265;28;20057;-57
2022/02/20 08:31:37;;;;;;;4.72;2.63;;;;;;;;;;5051440;28;20025;-57
2022/02/20 08:34:04;;;;;;;5.20;2.95;;;;;;;;;;5069215;28;20039;-57
2022/02/20 08:36:30;;;;;;;5.57;2.83;;;;;;;;;;5069341;28;20530;-57
2022/02/20 08:38:56;;;;;;;6.40;2.88;;;;;;;;;;5061656;28;20079;-57
2022/02/20 08:41:22;;;;;;;5.03;2.78;;;;;;;;;;5069153;28;20030;-57
2022/02/20 08:43:48;;;;;;;4.75;2.75;;;;;;;;;;5069032;28;20396;-57
2022/02/20 08:46:14;;;;;;;5.15;2.88;;;;;;;;;;5069260;28;20454;-57
2022/02/20 08:48:42;;;;;;;5.22;3.40;;;;;;;;;;5069323;28;20021;-57
2022/02/20 08:51:08;;;;;;;7.00;3.13;;;;;;;;;;5081281;28;20024;-57
2022/02/20 08:53:37;;;;;;;5.50;3.10;;;;;;;;;;5069239;28;20105;-56
2022/02/20 08:56:04;;;;;;;5.38;3.35;;;;;;;;;;5075776;28;20418;-56
2022/02/20 08:58:30;;;;;;;7.95;3.10;;;;;;;;;;5089216;28;20556;-56
2022/02/20 09:00:57;;;;;;;5.13;2.67;;;;;;;;;;5084237;28;20403;-56
2022/02/20 09:03:23;;;;;;;4.43;2.83;;;;;;;;;;5065791;28;20029;-56
2022/02/20 09:05:49;;;;;;;4.38;2.47;;;;;;;;;;5063192;28;20087;-56
2022/02/20 09:08:15;;;;;;;4.63;2.75;;;;;;;;;;5055014;28;20553;-56
2022/02/20 09:10:43;;;;;;;3.85;2.45;;;;;;;;;;5063565;28;20400;-56
2022/02/20 09:13:10;;;;;;;4.93;2.42;;;;;;;;;;5060238;28;20037;-56
2022/02/20 09:15:36;;;;;;;4.32;2.28;;;;;;;;;;5066851;28;20403;-56
2022/02/20 09:18:05;;;;;;;3.70;2.40;;;;;;;;;;5064630;28;20051;-57
2022/02/20 09:20:32;;;;;;;4.10;2.40;;;;;;;;;;5051457;28;20091;-57
2022/02/20 09:22:58;;;;;;;3.25;2.13;;;;;;;;;;5048662;28;20025;-57
2022/02/20 09:25:24;;;;;;;4.35;2.63;;;;;;;;;;5056944;28;20108;-56
2022/02/20 09:27:50;;;;;;;5.03;2.42;;;;;;;;;;5048274;28;20071;-57
2022/02/20 09:30:16;;;;;;;3.90;2.30;;;;;;;;;;5079755;28;20403;-56
2022/02/20 09:32:43;;;;;;;4.10;2.60;;;;;;;;;;5068612;28;20104;-56
2022/02/20 09:35:10;;;;;;;3.22;2.30;;;;;;;;;;5077827;28;20480;-57
2022/02/20 09:37:36;;;;;;;4.75;2.70;;;;;;;;;;5089096;28;20528;-56
2022/02/20 09:40:03;;;;;;;4.90;2.88;;;;;;;;;;5088564;28;20025;-56
2022/02/20 09:42:29;;;;;;;5.45;2.72;;;;;;;;;;5088717;28;20028;-57
2022/02/20 09:44:55;;;;;;;4.38;2.22;;;;;;;;;;5088602;28;20111;-56
2022/02/20 09:47:25;;;;;;;4.13;2.28;;;;;;;;;;5079209;28;20028;-57
2022/02/20 09:49:52;;;;;;;6.40;3.03;;;;;;;;;;5068319;28;20056;-57
2022/02/20 09:52:18;;;;;;;5.03;2.53;;;;;;;;;;5068435;28;20379;-56
2022/02/20 09:54:44;;;;;;;4.38;2.35;;;;;;;;;;5068436;28;20035;-57
2022/02/20 09:57:10;;;;;;;6.32;2.60;;;;;;;;;;5053797;28;20055;-56
2022/02/20 09:59:36;;;;;;;4.57;2.53;;;;;;;;;;5048772;28;20052;-51
2022/02/20 10:02:03;;;;;;;5.18;2.20;;;;;;;;;;5056097;28;20021;-50
2022/02/20 10:04:55;;;;;;;4.25;2.20;;;;;;;;;;5048265;28;20540;-48
2022/02/20 10:07:36;;;;;;;3.50;2.10;;;;;;;;;;5062636;28;20544;-52
2022/02/20 10:10:07;;;;;;;3.30;2.22;;;;;;;;;;5066780;28;20029;-52
2022/02/20 10:12:34;;;;;;;4.88;2.70;;;;;;;;;;5069868;28;20023;-52
2022/02/20 10:15:00;;;;;;;4.25;2.50;;;;;;;;;;5083539;28;20040;-50
2022/02/20 10:17:28;;;;;;;4.13;2.17;;;;;;;;;;5071827;28;20104;-48
2022/02/20 10:19:54;;;;;;;3.40;2.00;;;;;;;;;;5054298;28;20067;-52
2022/02/20 10:22:34;;;;;;;3.20;1.90;;;;;;;;;;5061308;28;20025;-50
2022/02/20 10:25:05;;;;;;;2.72;1.60;;;;;;;;;;5054321;28;20037;-52
2022/02/20 10:27:32;;;;;;;2.80;1.70;;;;;;;;;;5058721;28;20029;-49
2022/02/20 10:30:11;;;;;;;2.53;1.67;;;;;;;;;;5052916;28;20044;-52
2022/02/20 10:32:37;;;;;;;3.05;1.45;;;;;;;;;;5061710;28;20024;-52
2022/02/20 10:35:08;;;;;;;2.78;1.40;;;;;;;;;;5071595;28;20020;-51
2022/02/20 10:37:34;;;;;;;1.95;1.30;;;;;;;;;;5071686;28;20071;-51
2022/02/20 10:40:00;;;;;;;2.63;1.40;;;;;;;;;;5060338;28;20108;-52
2022/02/20 10:42:27;;;;;;;2.40;1.35;;;;;;;;;;5051830;28;20037;-51
2022/02/20 10:44:56;;;;;;;1.65;1.13;;;;;;;;;;5052503;28;20036;-50
2022/02/20 10:47:22;;;;;;;1.85;1.33;;;;;;;;;;5057863;28;20029;-51
2022/02/20 10:49:48;;;;;;;1.65;1.10;;;;;;;;;;5064456;28;20456;-51
2022/02/20 10:52:21;;;;;;;1.90;1.17;;;;;;;;;;5060805;28;20033;-52
2022/02/20 10:55:06;;;;;;;1.23;1.00;;;;;;;;;;5055893;28;20059;-51
2022/02/20 10:57:33;;;;;;;1.88;1.08;;;;;;;;;;5058811;28;20051;-51
2022/02/20 10:59:59;;;;;;;1.70;1.20;;;;;;;;;;5063268;28;20037;-53
2022/02/20 11:02:27;;;;;;;2.47;1.17;;;;;;;;;;5069087;28;20028;-51
2022/02/20 11:04:53;;;;;;;1.60;0.80;;;;;;;;;;5069353;28;20025;-53
2022/02/20 11:07:21;;;;;;;1.17;0.80;;;;;;;;;;5069740;28;20028;-52
2022/02/20 11:09:48;;;;;;;1.27;0.70;;;;;;;;;;5066947;28;20182;-52
2022/02/20 11:12:15;;;;;;;1.35;0.80;;;;;;;;;;5057851;28;20111;-51
2022/02/20 11:14:42;;;;;;;1.08;0.82;;;;;;;;;;5053143;28;20128;-50
2022/02/20 11:17:08;;;;;;;1.02;0.90;;;;;;;;;;5067015;28;20074;-52
2022/02/20 11:19:39;;;;;;;1.73;0.90;;;;;;;;;;5060210;28;20083;-50
2022/02/20 11:22:05;;;;;;;1.63;0.98;;;;;;;;;;5061543;28;20557;-51
2022/02/20 11:24:35;;;;;;;2.90;0.98;;;;;;;;;;5061326;28;20032;-53
2022/02/20 11:27:02;;;;;;;1.40;0.90;;;;;;;;;;5067762;28;20075;-53
2022/02/20 11:29:30;;;;;;;1.50;0.98;;;;;;;;;;5067564;28;20457;-53
2022/02/20 11:31:57;;;;;;;1.65;0.93;;;;;;;;;;5068019;28;20028;-52
2022/02/20 11:34:23;;;;;;;0.82;0.70;;;;;;;;;;5066182;28;20021;-54
2022/02/20 11:36:50;;;;;;;0.98;0.60;;;;;;;;;;5068349;28;20028;-49
2022/02/20 11:39:17;;;;;;;1.60;0.73;;;;;;;;;;5069331;28;20036;-49
2022/02/20 11:42:02;;;;;;;1.27;0.70;;;;;;;;;;5070072;28;20549;-49
2022/02/20 11:44:28;;;;;;;0.93;0.65;;;;;;;;;;5063916;28;20025;-48
2022/02/20 11:46:55;;;;;;;1.40;0.70;;;;;;;;;;5066513;28;20033;-51
2022/02/20 11:49:26;;;;;;;1.23;0.68;;;;;;;;;;5064220;28;20036;-48
2022/02/20 11:51:58;;;;;;;0.63;0.50;;;;;;;;;;5068781;28;20024;-49
2022/02/20 11:54:25;;;;;;;0.63;0.50;;;;;;;;;;5057808;28;20029;-49
2022/02/20 11:57:26;;;;;;;0.47;0.47;;;;;;;;;;5053967;28;20020;-50
2022/02/20 12:00:04;;;;;;;2.05;0.68;;;;;;;;;;5060857;28;20045;-51
2022/02/20 12:02:31;;;;;;;0.73;0.60;;;;;;;;;;5057941;28;20577;-50
2022/02/20 12:04:57;;;;;;;0.68;0.52;;;;;;;;;;5057822;28;20106;-53
2022/02/20 12:07:37;;;;;;;0.43;0.43;;;;;;;;;;5054600;28;20040;-50
2022/02/20 12:10:23;;;;;;;0.90;0.60;;;;;;;;;;5055010;28;20028;-54
2022/02/20 12:12:55;;;;;;;0.73;0.60;;;;;;;;;;5059859;28;20044;-55
2022/02/20 12:15:38;;;;;;;0.82;0.50;;;;;;;;;;5060792;28;20060;-54
2022/02/20 12:18:10;;;;;;;1.20;0.40;;;;;;;;;;5054287;28;20021;-50
2022/02/20 12:20:52;;;;;;;0.75;0.40;;;;;;;;;;5067323;28;20033;-50
2022/02/20 12:23:29;;;;;;;1.15;0.70;;;;;;;;;;5051380;28;20107;-47
2022/02/20 12:25:56;;;;;;;0.45;0.45;;;;;;;;;;5054455;28;20029;-47
2022/02/20 12:28:32;;;;;;;0.40;0.40;;;;;;;;;;5058887;28;20031;-48
2022/02/20 12:31:08;;;;;;;0.98;0.80;;;;;;;;;;5066245;28;20035;-48
2022/02/20 12:33:36;;;;;;;0.65;0.60;;;;;;;;;;5063551;28;20051;-49
2022/02/20 12:36:02;;;;;;;1.42;0.90;;;;;;;;;;5047971;28;20017;-48
2022/02/20 12:38:28;;;;;;;1.33;0.82;;;;;;;;;;5048078;28;20033;-51
2022/02/20 12:40:54;;;;;;;0.85;0.80;;;;;;;;;;5048423;28;20032;-48
2022/02/20 12:43:20;;;;;;;1.38;0.98;;;;;;;;;;5049927;28;20040;-51
2022/02/20 12:45:47;;;;;;;1.30;1.00;;;;;;;;;;5061175;28;20091;-48
2022/02/20 12:48:17;;;;;;;0.85;0.68;;;;;;;;;;5049406;28;20033;-48
2022/02/20 12:50:46;;;;;;;0.60;0.55;;;;;;;;;;5053237;28;20099;-49
2022/02/20 12:53:12;;;;;;;1.05;0.70;;;;;;;;;;5048163;28;20477;-49
2022/02/20 12:55:40;;;;;;;0.52;0.50;;;;;;;;;;5058590;28;20380;-51
2022/02/20 12:58:07;;;;;;;0.47;0.47;;;;;;;;;;5061791;28;20039;-49
2022/02/20 13:00:44;;;;;;;0.55;0.50;;;;;;;;;;5056563;28;20028;-52
2022/02/20 13:03:21;;;;;;;0.82;0.60;;;;;;;;;;5064240;28;20119;-52
2022/02/20 13:05:50;;;;;;;0.73;0.55;;;;;;;;;;5055343;28;20028;-48
2022/02/20 13:08:18;;;;;;;0.70;0.70;;;;;;;;;;5062675;28;20136;-48
2022/02/20 13:10:45;;;;;;;1.17;0.65;;;;;;;;;;5059062;28;20032;-48
2022/02/20 13:13:15;;;;;;;1.35;0.80;;;;;;;;;;5048887;28;20041;-50
2022/02/20 13:15:42;;;;;;;1.95;0.82;;;;;;;;;;5048054;28;20029;-49
2022/02/20 13:18:10;;;;;;;1.63;0.77;;;;;;;;;;5062598;28;20100;-51
2022/02/20 13:20:39;;;;;;;1.50;0.60;;;;;;;;;;5067358;28;20033;-49
2022/02/20 13:23:13;;;;;;;0.68;0.40;;;;;;;;;;5067468;28;20060;-50
2022/02/20 13:25:40;;;;;;;0.60;0.50;;;;;;;;;;5061118;28;20033;-49
2022/02/20 13:28:07;;;;;;;0.40;0.40;;;;;;;;;;5061869;28;20041;-51
2022/02/20 13:30:34;;;;;;;0.60;0.50;;;;;;;;;;5056457;28;20032;-51
2022/02/20 13:33:16;;;;;;;0.73;0.47;;;;;;;;;;5052886;28;20037;-50
2022/02/20 13:35:43;;;;;;;0.98;0.57;;;;;;;;;;5066937;28;20021;-50
2022/02/20 13:38:11;;;;;;;0.93;0.40;;;;;;;;;;5069244;28;20036;-49
2022/02/20 13:40:40;;;;;;;0.40;0.40;;;;;;;;;;5065419;28;20024;-47
2022/02/20 13:43:08;;;;;;;0.77;0.60;;;;;;;;;;5065973;28;20566;-48
2022/02/20 13:45:34;;;;;;;1.10;0.30;;;;;;;;;;5056942;28;20123;-48
2022/02/20 13:48:01;;;;;;;0.30;0.30;;;;;;;;;;5071158;28;20036;-48
2022/02/20 13:50:28;;;;;;;1.80;0.68;;;;;;;;;;5059371;28;20035;-48
2022/02/20 13:52:54;;;;;;;0.40;0.40;;;;;;;;;;5058213;28;20031;-48
2022/02/20 13:55:27;;;;;;;0.30;0.30;;;;;;;;;;5058766;28;20025;-48
2022/02/20 13:57:54;;;;;;;0.50;0.50;;;;;;;;;;5070215;28;20033;-49
2022/02/20 14:00:20;;;;;;;0.40;0.30;;;;;;;;;;5070560;28;20385;-48
2022/02/20 14:02:46;;;;;;;0.40;0.30;;;;;;;;;;5055388;28;20037;-50
2022/02/20 14:05:20;;;;;;;0.80;0.30;;;;;;;;;;5068568;28;20025;-48
2022/02/20 14:07:46;;;;;;;0.20;0.20;;;;;;;;;;5068350;28;20032;-50
2022/02/20 14:10:14;;;;;;;0.20;0.20;;;;;;;;;;5070242;28;20035;-50
2022/02/20 14:12:42;;;;;;;0.60;0.30;;;;;;;;;;5066661;28;20023;-52
2022/02/20 14:15:08;;;;;;;0.43;0.40;;;;;;;;;;5060138;28;20052;-51
2022/02/20 14:17:50;;;;;;;0.40;0.40;;;;;;;;;;5052828;28;20722;-49
2022/02/20 14:20:17;;;;;;;0.50;0.40;;;;;;;;;;5053610;28;20676;-50
2022/02/20 14:22:43;;;;;;;0.30;0.30;;;;;;;;;;5065621;28;20064;-50
2022/02/20 14:25:10;;;;;;;0.63;0.60;;;;;;;;;;5057693;28;20082;-50
2022/02/20 14:27:37;;;;;;;1.52;0.80;;;;;;;;;;5070091;28;20032;-51
2022/02/20 14:30:04;;;;;;;0.50;0.50;;;;;;;;;;5065647;28;20452;-49
2022/02/20 14:32:31;;;;;;;1.65;0.60;;;;;;;;;;5061362;28;20388;-50
2022/02/20 14:34:57;;;;;;;0.85;0.47;;;;;;;;;;5064833;28;20550;-51
2022/02/20 14:37:33;;;;;;;0.52;0.45;;;;;;;;;;5061494;28;20028;-49
2022/02/20 14:39:59;;;;;;;0.63;0.63;;;;;;;;;;5050311;28;20025;-50
2022/02/20 14:42:25;;;;;;;0.95;0.50;;;;;;;;;;5068594;28;20032;-53
2022/02/20 14:44:51;;;;;;;0.30;0.30;;;;;;;;;;5062292;28;20064;-52